Time;durP1;ratioP1;P1;durP2;ratioP2;P2;SDS_P1;SDS_P2;PMS_P1;PMS_P2;Temp;Humidity;BMP_temperature;BMP_pressure;BME280_temperature;BME280_humidity;BME280_pressure;Samples;Min_cycle;Max_cycle;Signal;HPM_P1;HPM_P2
2023/12/16 16:12:05;;;;;;;11.93;9.63;;;8.30;99.90;;;;;;5109333;27;1447313;-86
2023/12/16 16:14:31;;;;;;;16.92;12.40;;;8.80;99.90;;;;;;5097181;28;20024;-86
2023/12/16 16:16:58;;;;;;;15.02;11.32;;;8.90;99.90;;;;;;5113806;28;20023;-87
2023/12/16 16:19:23;;;;;;;17.25;10.00;;;8.70;99.90;;;;;;5082589;28;20372;-86
2023/12/16 16:21:49;;;;;;;32.50;14.18;;;8.70;99.90;;;;;;5080394;28;20023;-86
2023/12/16 16:24:16;;;;;;;16.70;9.15;;;8.80;99.90;;;;;;5078594;28;20024;-85
2023/12/16 16:26:41;;;;;;;15.10;10.52;;;8.70;99.90;;;;;;5079362;28;20096;-85
2023/12/16 16:29:07;;;;;;;15.48;10.95;;;8.70;99.90;;;;;;5064773;28;20020;-86
2023/12/16 16:31:37;;;;;;;18.10;10.52;;;;;;;;;;5098909;28;20040;-86
2023/12/16 16:34:04;;;;;;;15.52;9.07;;;8.60;99.90;;;;;;5098386;28;20025;-86
2023/12/16 16:36:30;;;;;;;15.10;10.60;;;8.70;99.90;;;;;;5081840;28;20095;-86
2023/12/16 16:38:58;;;;;;;17.20;9.98;;;8.80;99.90;;;;;;5090421;28;20446;-88
2023/12/16 16:41:24;;;;;;;11.73;9.18;;;8.80;99.90;;;;;;5080905;28;20015;-86
2023/12/16 16:43:50;;;;;;;18.23;11.43;;;8.80;99.90;;;;;;5098223;28;20351;-86
2023/12/16 16:46:16;;;;;;;41.72;24.67;;;8.80;99.90;;;;;;5098661;28;20329;-87
2023/12/16 16:48:43;;;;;;;76.47;52.65;;;8.90;99.90;;;;;;5106528;28;20362;-86
2023/12/16 16:51:09;;;;;;;28.92;20.60;;;8.70;99.90;;;;;;5081625;28;20032;-88
2023/12/16 16:53:36;;;;;;;28.50;18.58;;;8.70;99.90;;;;;;5097596;28;20297;-86
2023/12/16 16:56:06;;;;;;;35.65;25.80;;;8.80;99.90;;;;;;5081194;28;20024;-86
2023/12/16 16:58:32;;;;;;;;;;;8.80;99.90;;;;;;5089453;28;20108;-84
2023/12/16 17:00:57;;;;;;;47.78;33.13;;;8.80;99.90;;;;;;5098054;28;20181;-86
2023/12/16 17:03:23;;;;;;;20.90;16.85;;;8.70;99.90;;;;;;5081537;28;20332;-86
2023/12/16 17:05:49;;;;;;;16.98;11.07;;;8.70;99.90;;;;;;5098685;28;20074;-85
2023/12/16 17:08:15;;;;;;;16.27;10.98;;;8.80;99.90;;;;;;5098311;28;20297;-85
2023/12/16 17:10:41;;;;;;;22.25;14.13;;;8.80;99.90;;;;;;5093547;28;20098;-85
2023/12/16 17:13:07;;;;;;;16.35;11.13;;;8.80;99.90;;;;;;5094937;28;20025;-86
2023/12/16 17:15:34;;;;;;;13.25;10.27;;;8.80;99.90;;;;;;5064314;28;20020;-86
2023/12/16 17:18:00;;;;;;;17.42;10.57;;;8.80;99.90;;;;;;5111664;28;20050;-85
2023/12/16 17:20:26;;;;;;;17.92;11.25;;;8.80;99.90;;;;;;5088905;28;20020;-87
2023/12/16 17:22:51;;;;;;;17.60;13.40;;;8.80;99.90;;;;;;5067437;28;20025;-86
2023/12/16 17:25:17;;;;;;;36.88;27.10;;;8.80;99.90;;;;;;5054526;28;20020;-85
2023/12/16 17:27:43;;;;;;;20.52;14.80;;;8.80;99.90;;;;;;5080933;28;20356;-86
2023/12/16 17:30:10;;;;;;;15.85;12.85;;;8.80;99.90;;;;;;5082427;28;20048;-86
2023/12/16 17:32:36;;;;;;;23.15;11.82;;;9.00;99.90;;;;;;5079588;28;20123;-86
2023/12/16 17:35:02;;;;;;;17.25;10.68;;;;;;;;;;5083817;28;20309;-85
2023/12/16 17:37:27;;;;;;;31.55;21.48;;;8.80;99.90;;;;;;5063238;28;20352;-87
2023/12/16 17:39:54;;;;;;;17.08;15.27;;;;;;;;;;5081016;28;20091;-87
2023/12/16 17:42:19;;;;;;;21.67;19.35;;;8.80;99.90;;;;;;5072526;28;20024;-86
2023/12/16 17:44:45;;;;;;;22.83;15.15;;;8.80;99.90;;;;;;5048268;28;20028;-85
2023/12/16 17:47:11;;;;;;;22.52;14.88;;;8.80;99.90;;;;;;5059932;28;20244;-89
2023/12/16 17:49:37;;;;;;;23.48;17.15;;;8.90;99.90;;;;;;5085524;28;20201;-86
2023/12/16 17:52:03;;;;;;;25.65;14.75;;;8.80;99.90;;;;;;5067071;28;20021;-86
2023/12/16 17:54:29;;;;;;;16.85;13.35;;;;;;;;;;5075815;28;20373;-86
2023/12/16 17:56:56;;;;;;;19.20;10.07;;;8.70;99.90;;;;;;5074997;28;20025;-87
2023/12/16 17:59:21;;;;;;;15.50;11.98;;;8.70;99.90;;;;;;5082346;28;20009;-85
2023/12/16 18:01:48;;;;;;;20.73;12.48;;;8.80;99.90;;;;;;5063030;28;20086;-85
2023/12/16 18:04:14;;;;;;;14.05;9.75;;;8.80;99.90;;;;;;5084324;28;20070;-85
2023/12/16 18:06:40;;;;;;;15.27;13.20;;;8.80;99.90;;;;;;5067301;28;20021;-86
2023/12/16 18:09:06;;;;;;;19.83;12.43;;;8.80;99.90;;;;;;5064379;28;20023;-87
2023/12/16 18:11:37;;;;;;;16.70;14.00;;;8.60;99.90;;;;;;5052107;28;20260;-86
2023/12/16 18:14:06;;;;;;;17.40;13.82;;;8.80;99.90;;;;;;5083887;28;20025;-86
2023/12/16 18:16:36;;;;;;;14.27;11.23;;;8.80;99.90;;;;;;5088627;28;20021;-86
2023/12/16 18:19:03;;;;;;;16.15;14.43;;;8.80;99.90;;;;;;5064283;28;20094;-86
2023/12/16 18:21:29;;;;;;;21.13;14.82;;;8.70;99.90;;;;;;5082174;28;20186;-86
2023/12/16 18:23:55;;;;;;;20.40;14.20;;;8.80;99.90;;;;;;5081680;28;20025;-86
2023/12/16 18:26:22;;;;;;;22.80;16.45;;;8.70;99.90;;;;;;5065113;28;20029;-86
2023/12/16 18:28:48;;;;;;;15.70;13.95;;;8.70;99.90;;;;;;5063501;28;20091;-86
2023/12/16 18:31:14;;;;;;;24.83;19.10;;;8.70;99.90;;;;;;5096560;28;20031;-86
2023/12/16 18:33:39;;;;;;;25.30;16.73;;;8.70;99.90;;;;;;5076590;28;20052;-86
2023/12/16 18:36:06;;;;;;;19.75;13.07;;;8.70;99.90;;;;;;5046696;28;20093;-86
2023/12/16 18:38:32;;;;;;;18.98;14.27;;;8.80;99.90;;;;;;5063449;28;20051;-83
2023/12/16 18:40:57;;;;;;;22.00;16.52;;;8.80;99.90;;;;;;5082369;28;20029;-86
2023/12/16 18:43:24;;;;;;;18.50;11.98;;;8.70;99.90;;;;;;5083527;28;20305;-86
2023/12/16 18:45:52;;;;;;;18.45;13.77;;;8.70;99.90;;;;;;5071604;28;20025;-86
2023/12/16 18:48:18;;;;;;;16.27;11.68;;;8.80;99.90;;;;;;5075581;28;20020;-86
2023/12/16 18:50:47;;;;;;;15.05;12.15;;;8.70;99.90;;;;;;5089725;28;20277;-87
2023/12/16 18:53:16;;;;;;;16.40;13.30;;;8.70;99.90;;;;;;5063397;28;20017;-86
2023/12/16 18:55:42;;;;;;;22.90;19.15;;;8.70;99.90;;;;;;5063530;28;20052;-86
2023/12/16 18:58:08;;;;;;;27.80;15.98;;;8.70;99.90;;;;;;5063334;28;20025;-86
2023/12/16 19:00:35;;;;;;;22.10;14.32;;;8.70;99.90;;;;;;5063765;28;20052;-87
2023/12/16 19:03:01;;;;;;;20.35;16.35;;;8.70;99.90;;;;;;5063297;28;20187;-86
2023/12/16 19:05:27;;;;;;;29.85;19.92;;;8.70;99.90;;;;;;5062909;28;20031;-86
2023/12/16 19:07:53;;;;;;;28.05;23.65;;;8.70;99.90;;;;;;5062453;28;20029;-86
2023/12/16 19:10:19;;;;;;;17.42;14.93;;;8.70;99.90;;;;;;5087841;28;20340;-86
2023/12/16 19:12:45;;;;;;;34.72;13.85;;;8.70;99.90;;;;;;5082983;28;20020;-87
2023/12/16 19:15:11;;;;;;;25.40;17.80;;;8.70;99.90;;;;;;5066638;28;20099;-86
2023/12/16 19:17:37;;;;;;;17.95;13.15;;;8.70;99.90;;;;;;5103230;28;20264;-86
2023/12/16 19:20:03;;;;;;;24.00;13.43;;;8.70;99.90;;;;;;5090231;28;20044;-86
2023/12/16 19:22:28;;;;;;;15.80;12.70;;;8.80;99.90;;;;;;5056912;28;20263;-87
2023/12/16 19:24:54;;;;;;;20.58;15.15;;;8.70;99.90;;;;;;5063316;28;20064;-86
2023/12/16 19:27:20;;;;;;;25.60;13.80;;;8.70;99.90;;;;;;5045982;28;20294;-87
2023/12/16 19:29:47;;;;;;;22.73;15.30;;;8.70;99.90;;;;;;5054536;28;20221;-87
2023/12/16 19:32:14;;;;;;;19.25;14.45;;;8.70;99.90;;;;;;5086187;28;20091;-86
2023/12/16 19:34:40;;;;;;;38.38;23.98;;;8.70;99.90;;;;;;5075325;28;20020;-86
2023/12/16 19:37:05;;;;;;;20.70;16.23;;;8.70;99.90;;;;;;5069275;28;20020;-86
2023/12/16 19:39:31;;;;;;;21.70;17.35;;;8.70;99.90;;;;;;5078417;28;20032;-86
2023/12/16 19:41:57;;;;;;;29.00;15.98;;;8.70;99.90;;;;;;5062359;28;20078;-86
2023/12/16 19:44:24;;;;;;;23.70;15.05;;;8.70;99.90;;;;;;5049808;28;20025;-85
2023/12/16 19:46:50;;;;;;;15.80;14.02;;;8.60;99.90;;;;;;5079184;28;20527;-85
2023/12/16 19:49:16;;;;;;;27.80;12.98;;;8.70;99.90;;;;;;5064779;28;20020;-85
2023/12/16 19:51:43;;;;;;;15.85;11.27;;;8.70;99.90;;;;;;5076042;28;20209;-86
2023/12/16 19:54:09;;;;;;;28.10;15.25;;;8.70;99.90;;;;;;5045164;28;20021;-85
2023/12/16 19:56:36;;;;;;;16.20;12.55;;;8.70;99.90;;;;;;5074823;28;20043;-85
2023/12/16 19:59:02;;;;;;;21.23;12.50;;;8.70;99.90;;;;;;5082471;28;20023;-85
2023/12/16 20:01:28;;;;;;;13.05;10.85;;;8.60;99.90;;;;;;5096993;28;20073;-85
2023/12/16 20:03:54;;;;;;;21.02;16.63;;;8.70;99.90;;;;;;5064810;28;20025;-86
2023/12/16 20:06:20;;;;;;;19.92;12.40;;;8.60;99.90;;;;;;5065426;28;20024;-86
2023/12/16 20:08:45;;;;;;;16.00;13.25;;;8.60;99.90;;;;;;5082278;28;20025;-86
2023/12/16 20:11:12;;;;;;;19.95;13.23;;;8.70;99.90;;;;;;5068748;28;20049;-86
2023/12/16 20:13:38;;;;;;;20.25;11.95;;;8.60;99.90;;;;;;5089907;28;20100;-86
2023/12/16 20:16:04;;;;;;;17.02;13.20;;;8.60;99.90;;;;;;5082051;28;20042;-86
2023/12/16 20:18:31;;;;;;;15.80;11.48;;;;;;;;;;5087011;28;20016;-85
2023/12/16 20:20:57;;;;;;;23.65;14.02;;;8.60;99.90;;;;;;5072385;28;20037;-87
2023/12/16 20:23:23;;;;;;;35.42;15.43;;;8.60;99.90;;;;;;5061698;28;20094;-88
2023/12/16 20:25:49;;;;;;;26.08;13.20;;;8.60;99.90;;;;;;5080904;28;20016;-86
2023/12/16 20:28:15;;;;;;;33.92;15.20;;;8.60;99.90;;;;;;5083915;28;20031;-85
2023/12/16 20:30:43;;;;;;;25.58;13.63;;;8.60;99.90;;;;;;5072072;28;20032;-85
2023/12/16 20:33:09;;;;;;;31.92;17.23;;;8.60;99.90;;;;;;5076143;28;20182;-85
2023/12/16 20:35:35;;;;;;;17.50;12.90;;;8.60;99.90;;;;;;5080822;28;20023;-87
2023/12/16 20:38:04;;;;;;;19.98;15.60;;;8.60;99.90;;;;;;5081315;28;20020;-87
2023/12/16 20:40:32;;;;;;;16.45;13.40;;;8.50;99.90;;;;;;5063733;28;20320;-86
2023/12/16 20:42:59;;;;;;;26.45;14.98;;;8.80;99.90;;;;;;5084906;28;20020;-85
2023/12/16 20:45:28;;;;;;;23.65;13.25;;;8.50;99.90;;;;;;5076938;28;20016;-86
2023/12/16 20:47:57;;;;;;;27.30;15.18;;;8.50;99.90;;;;;;5087191;28;20027;-85
2023/12/16 20:50:24;;;;;;;29.55;12.98;;;8.50;99.90;;;;;;5079141;28;20041;-85
2023/12/16 20:52:51;;;;;;;26.50;17.85;;;8.50;99.90;;;;;;5079213;28;20024;-86
2023/12/16 20:55:22;;;;;;;15.77;13.60;;;8.40;99.90;;;;;;5077313;28;20019;-87
2023/12/16 20:57:49;;;;;;;19.80;12.73;;;8.50;99.90;;;;;;5062752;28;20213;-87
2023/12/16 21:00:19;;;;;;;14.85;13.05;;;8.50;99.90;;;;;;5073055;28;20083;-87
2023/12/16 21:02:45;;;;;;;27.40;17.30;;;8.50;99.90;;;;;;5084062;28;20024;-86
2023/12/16 21:05:11;;;;;;;19.88;16.52;;;8.80;99.90;;;;;;5064346;28;20017;-85
2023/12/16 21:07:38;;;;;;;18.40;14.70;;;8.50;99.90;;;;;;5072036;28;20317;-85
2023/12/16 21:10:04;;;;;;;23.70;15.93;;;8.50;99.90;;;;;;5073269;28;20061;-86
2023/12/16 21:12:30;;;;;;;23.42;13.68;;;8.50;99.90;;;;;;5104753;28;20023;-86
2023/12/16 21:14:57;;;;;;;28.13;18.83;;;8.50;99.90;;;;;;5094065;28;20213;-87
2023/12/16 21:17:22;;;;;;;38.47;17.20;;;8.50;99.90;;;;;;5063953;28;20028;-86
2023/12/16 21:19:48;;;;;;;18.20;14.27;;;8.50;99.90;;;;;;5069920;28;20052;-86
2023/12/16 21:22:14;;;;;;;29.13;17.42;;;8.50;99.90;;;;;;5068317;28;20050;-86
2023/12/16 21:24:40;;;;;;;25.58;17.80;;;8.50;99.90;;;;;;5053438;28;20094;-86
2023/12/16 21:27:09;;;;;;;28.63;17.17;;;8.60;99.90;;;;;;5080847;28;20021;-86
2023/12/16 21:29:36;;;;;;;33.17;17.10;;;8.50;99.90;;;;;;5081155;28;20017;-87
2023/12/16 21:32:02;;;;;;;25.02;18.48;;;8.50;99.90;;;;;;5080775;28;20085;-87
2023/12/16 21:34:32;;;;;;;27.73;19.67;;;8.50;99.90;;;;;;5081716;28;20016;-88
2023/12/16 21:36:58;;;;;;;22.77;16.60;;;8.50;99.90;;;;;;5064860;28;20024;-84
2023/12/16 21:39:23;;;;;;;29.73;15.20;;;8.50;99.90;;;;;;5081529;28;20074;-87
2023/12/16 21:41:49;;;;;;;41.30;16.95;;;8.50;99.90;;;;;;5065800;28;20021;-84
2023/12/16 21:44:15;;;;;;;32.25;16.58;;;8.50;99.90;;;;;;5081463;28;20021;-87
2023/12/16 21:46:41;;;;;;;23.52;16.35;;;8.50;99.90;;;;;;5064604;28;20020;-86
2023/12/16 21:49:07;;;;;;;23.35;18.25;;;8.50;99.90;;;;;;5084299;28;20025;-86
2023/12/16 21:51:33;;;;;;;28.23;17.83;;;8.50;99.90;;;;;;5085512;28;20040;-86
2023/12/16 21:53:59;;;;;;;27.38;16.58;;;8.50;99.90;;;;;;5084619;28;20091;-86
2023/12/16 21:56:25;;;;;;;27.42;18.52;;;8.50;99.90;;;;;;5084392;28;20107;-86
2023/12/16 21:58:54;;;;;;;27.50;19.48;;;8.50;99.90;;;;;;5085360;28;20159;-86
2023/12/16 22:09:09;;;;;;;26.92;17.17;;;8.60;99.90;;;;;;5085318;28;20087;-86
2023/12/16 22:11:35;;;;;;;27.48;18.80;;;8.60;99.90;;;;;;5059588;28;20045;-86
2023/12/16 22:14:01;;;;;;;31.92;19.83;;;8.60;99.90;;;;;;5060977;28;20024;-85
2023/12/16 22:16:27;;;;;;;25.75;17.33;;;8.60;99.90;;;;;;5045446;28;20053;-86
2023/12/16 22:18:53;;;;;;;18.90;15.82;;;8.60;99.90;;;;;;5060610;28;20063;-86
2023/12/16 22:21:19;;;;;;;21.35;17.42;;;8.60;99.90;;;;;;5044311;28;20092;-86
2023/12/16 22:23:45;;;;;;;32.58;17.30;;;8.60;99.90;;;;;;5060649;28;20036;-86
2023/12/16 22:26:11;;;;;;;22.60;16.77;;;8.60;99.90;;;;;;5044008;28;20033;-86
2023/12/16 22:28:37;;;;;;;29.98;16.02;;;8.60;99.90;;;;;;5060932;28;20021;-87
2023/12/16 22:31:02;;;;;;;29.80;19.15;;;8.60;99.90;;;;;;5060305;28;20037;-86
2023/12/16 22:33:28;;;;;;;26.08;19.45;;;8.50;99.90;;;;;;5026927;28;20025;-86
2023/12/16 22:35:54;;;;;;;24.65;20.67;;;8.60;99.90;;;;;;5043692;28;20029;-86
2023/12/16 22:38:20;;;;;;;25.08;18.25;;;8.60;99.90;;;;;;5060236;28;20340;-86
2023/12/16 22:40:46;;;;;;;23.90;19.70;;;;;;;;;;5060050;28;20017;-86
2023/12/16 22:43:12;;;;;;;22.33;17.23;;;8.60;99.90;;;;;;5027034;28;20294;-86
2023/12/16 22:45:38;;;;;;;23.92;17.45;;;8.60;99.90;;;;;;5060686;28;20035;-86
2023/12/16 22:48:03;;;;;;;27.73;16.38;;;8.60;99.90;;;;;;5027362;28;20017;-88
2023/12/16 22:50:30;;;;;;;23.50;19.40;;;8.60;99.90;;;;;;5054869;28;20144;-86
2023/12/16 22:52:56;;;;;;;21.30;15.18;;;8.60;99.90;;;;;;5063362;28;20016;-86
2023/12/16 22:55:21;;;;;;;28.23;19.33;;;8.60;99.90;;;;;;5030476;28;20025;-86
2023/12/16 22:57:47;;;;;;;22.73;19.73;;;8.60;99.90;;;;;;5064765;28;20021;-86
2023/12/16 23:00:25;;;;;;;23.27;19.35;;;8.60;99.90;;;;;;5062822;28;20033;-86
2023/12/16 23:02:54;;;;;;;32.67;20.80;;;8.60;99.90;;;;;;5046596;28;20314;-86
2023/12/16 23:05:21;;;;;;;23.95;18.15;;;8.60;99.90;;;;;;5046891;28;20017;-86
2023/12/16 23:07:46;;;;;;;34.58;20.63;;;8.60;99.90;;;;;;5064250;28;20032;-86
2023/12/16 23:10:12;;;;;;;28.33;19.15;;;8.60;99.90;;;;;;5030702;28;20079;-86
2023/12/16 23:12:38;;;;;;;23.08;18.80;;;8.60;99.90;;;;;;5043058;28;20251;-85
2023/12/16 23:15:04;;;;;;;22.63;19.13;;;8.50;99.90;;;;;;5043297;28;20018;-86
2023/12/16 23:17:30;;;;;;;24.40;16.40;;;8.60;99.90;;;;;;5042739;28;20029;-86
2023/12/16 23:19:56;;;;;;;27.40;17.48;;;8.50;99.90;;;;;;5062159;28;20333;-86
2023/12/16 23:22:22;;;;;;;23.00;18.67;;;8.60;99.90;;;;;;5046452;28;20082;-86
2023/12/16 23:24:48;;;;;;;34.85;18.30;;;8.60;99.90;;;;;;5046319;28;20033;-86
2023/12/16 23:27:14;;;;;;;22.83;17.95;;;8.50;99.90;;;;;;5062730;28;20031;-86
2023/12/16 23:29:40;;;;;;;21.75;17.80;;;8.60;99.90;;;;;;5064030;28;20098;-86
2023/12/16 23:32:06;;;;;;;19.42;16.10;;;8.60;99.90;;;;;;5062669;28;20517;-85
2023/12/16 23:34:32;;;;;;;27.45;17.33;;;8.60;99.90;;;;;;5064048;28;20016;-85
2023/12/16 23:36:57;;;;;;;24.38;18.38;;;8.60;99.90;;;;;;5046153;28;20244;-86
2023/12/16 23:39:23;;;;;;;25.83;19.95;;;8.50;99.90;;;;;;5045557;28;20320;-86
2023/12/16 23:41:50;;;;;;;25.30;18.80;;;8.50;99.90;;;;;;5062972;28;20409;-86
2023/12/16 23:44:18;;;;;;;26.92;20.10;;;8.50;99.90;;;;;;5062804;28;20187;-86
2023/12/16 23:46:47;;;;;;;27.50;19.58;;;8.60;99.90;;;;;;5062550;28;20025;-85
2023/12/16 23:49:13;;;;;;;28.38;18.92;;;8.50;99.90;;;;;;5062661;28;20040;-86
2023/12/16 23:51:40;;;;;;;23.75;18.35;;;8.50;99.90;;;;;;5062621;28;20044;-86
2023/12/16 23:54:06;;;;;;;17.73;15.93;;;8.50;99.90;;;;;;5063473;28;20013;-86
2023/12/16 23:56:32;;;;;;;30.00;19.23;;;8.50;99.90;;;;;;5045721;28;20017;-86
2023/12/16 23:58:58;;;;;;;19.65;17.73;;;8.50;99.90;;;;;;5045678;28;20025;-86
